Time;durP1;ratioP1;P1;durP2;ratioP2;P2;SDS_P1;SDS_P2;PMS_P1;PMS_P2;Temp;Humidity;BMP_temperature;BMP_pressure;BME280_temperature;BME280_humidity;BME280_pressure;Samples;Min_cycle;Max_cycle;Signal;HPM_P1;HPM_P2
2022/11/26 00:02:29;;;;;;;25.15;12.00;;;;;;;8.64;78.94;100842.06;1864919;77;21477;-47
2022/11/26 00:04:59;;;;;;;25.95;11.57;;;;;;;8.64;79.10;100848.62;1867701;77;21110;-46
2022/11/26 00:07:30;;;;;;;29.18;11.60;;;;;;;8.65;79.21;100842.45;1867263;77;21482;-47
2022/11/26 00:09:59;;;;;;;29.30;12.37;;;;;;;8.67;79.31;100842.83;1873389;75;21021;-47
2022/11/26 00:12:31;;;;;;;24.43;11.30;;;;;;;8.67;79.40;100848.09;1866791;75;21478;-48
2022/11/26 00:15:02;;;;;;;28.30;11.63;;;;;;;8.68;79.44;100849.79;1868313;77;21474;-46
2022/11/26 00:17:31;;;;;;;28.95;10.98;;;;;;;8.72;79.40;100853.19;1867396;75;21482;-46
2022/11/26 00:19:59;;;;;;;28.85;11.22;;;;;;;8.76;79.24;100856.58;1868884;77;21109;-45
2022/11/26 00:22:30;;;;;;;27.87;11.70;;;;;;;8.78;79.07;100859.59;1887176;75;21078;-47
2022/11/26 00:25:00;;;;;;;25.37;10.85;;;;;;;8.79;79.01;100859.12;1876302;76;21162;-51
2022/11/26 00:27:29;;;;;;;30.20;12.45;;;;;;;8.79;79.05;100861.29;1871674;75;21091;-48
2022/11/26 00:29:57;;;;;;;25.68;10.35;;;;;;;8.79;79.09;100859.98;1873532;75;21231;-46
2022/11/26 00:32:27;;;;;;;30.15;11.43;;;;;;;8.81;79.05;100864.72;1871495;75;21065;-51
2022/11/26 00:34:55;;;;;;;30.02;11.93;;;;;;;8.81;78.98;100864.72;1870029;75;21566;-49
2022/11/26 00:37:27;;;;;;;35.28;12.13;;;;;;;8.82;78.93;100873.02;1888452;75;21213;-51
2022/11/26 00:39:57;;;;;;;28.85;10.90;;;;;;;8.82;78.95;100869.55;1883494;75;21535;-49
2022/11/26 00:42:25;;;;;;;28.35;11.05;;;;;;;8.82;78.97;100876.96;1877724;75;21587;-48
2022/11/26 00:44:54;;;;;;;23.40;9.78;;;;;;;8.82;79.02;100870.86;1868957;76;21016;-49
2022/11/26 00:47:23;;;;;;;26.45;10.60;;;;;;;8.81;79.03;100876.54;1860378;76;21098;-50
2022/11/26 00:49:51;;;;;;;29.98;11.25;;;;;;;8.79;79.07;100871.80;1887219;76;21043;-49
2022/11/26 00:52:29;;;;;;;26.73;9.75;;;;;;;8.80;79.07;100870.90;1881477;76;21008;-47
2022/11/26 00:54:58;;;;;;;27.82;10.93;;;;;;;8.79;79.11;100877.50;1881642;76;21044;-48
2022/11/26 00:57:27;;;;;;;30.70;11.08;;;;;;;8.79;79.05;100870.94;1885142;76;21078;-49
2022/11/26 00:59:55;;;;;;;28.52;11.25;;;;;;;8.77;79.08;100874.91;1876966;76;21102;-48
2022/11/26 01:02:24;;;;;;;31.68;11.88;;;;;;;8.77;79.16;100878.00;1876226;76;21141;-49
2022/11/26 01:04:53;;;;;;;30.37;11.30;;;;;;;8.75;79.24;100876.73;1893206;76;21038;-49
2022/11/26 01:07:21;;;;;;;31.75;11.15;;;;;;;8.76;79.26;100881.52;1893350;76;21015;-52
2022/11/26 01:09:50;;;;;;;29.52;11.20;;;;;;;8.76;79.27;100885.03;1893265;76;21043;-48
2022/11/26 01:12:18;;;;;;;27.10;11.53;;;;;;;8.78;79.28;100887.58;1893249;76;21043;-47
2022/11/26 01:14:47;;;;;;;26.97;10.55;;;;;;;8.77;79.27;100890.67;1879802;76;21083;-49
2022/11/26 01:17:16;;;;;;;27.17;10.25;;;;;;;8.78;79.23;100892.41;1890260;76;21513;-48
2022/11/26 01:19:45;;;;;;;22.50;9.80;;;;;;;8.78;79.21;100898.97;1893288;76;21035;-46
2022/11/26 01:22:24;;;;;;;26.33;10.43;;;;;;;8.76;79.18;100890.28;1893319;76;21015;-47
2022/11/26 01:24:53;;;;;;;27.07;10.85;;;;;;;8.75;79.27;100891.17;1880104;76;21471;-47
2022/11/26 01:27:21;;;;;;;23.50;10.13;;;;;;;8.74;79.37;100893.38;1873832;76;21031;-48
2022/11/26 01:29:50;;;;;;;24.60;10.18;;;;;;;8.74;79.36;100892.06;1872823;76;21534;-46
2022/11/26 01:32:19;;;;;;;24.92;10.48;;;;;;;8.74;79.42;100893.84;1872958;76;21039;-48
2022/11/26 01:34:48;;;;;;;20.08;9.83;;;;;;;8.72;79.44;100892.56;1890320;76;21067;-46
2022/11/26 01:37:16;;;;;;;22.40;8.95;;;;;;;8.73;79.47;100892.13;1874189;76;21147;-47
2022/11/26 01:39:45;;;;;;;24.57;9.98;;;;;;;8.73;79.53;100893.45;1874133;76;21062;-46
2022/11/26 01:42:20;;;;;;;25.05;9.23;;;;;;;8.69;79.64;100888.27;1873413;76;21052;-47
2022/11/26 01:44:48;;;;;;;27.85;9.85;;;;;;;8.67;79.76;100888.77;1863189;76;21001;-48
2022/11/26 01:47:29;;;;;;;20.17;9.20;;;;;;;8.63;80.00;100881.90;1867787;76;21057;-51
2022/11/26 01:50:20;;;;;;;24.63;9.50;;;;;;;8.65;80.12;100893.64;1875857;76;21050;-50
2022/11/26 01:52:48;;;;;;;23.75;9.65;;;;;;;8.65;80.10;100900.20;1825515;78;21047;-46
2022/11/26 01:55:18;;;;;;;20.92;8.85;;;;;;;8.63;80.07;100899.39;1854530;77;21123;-46
2022/11/26 01:57:48;;;;;;;22.50;8.25;;;;;;;8.63;80.06;100899.39;1860568;77;21142;-46
2022/11/26 02:00:17;;;;;;;20.48;8.90;;;;;;;8.63;80.07;100899.39;1842400;78;21597;-45
2022/11/26 02:02:46;;;;;;;24.95;9.13;;;;;;;8.64;80.13;100897.19;1850139;77;21196;-47
2022/11/26 02:05:27;;;;;;;19.70;8.15;;;;;;;8.64;80.13;100899.35;1841970;78;21051;-48
2022/11/26 02:07:56;;;;;;;19.57;8.35;;;;;;;8.65;80.10;100908.08;1850242;77;21124;-47
2022/11/26 02:10:25;;;;;;;23.52;8.68;;;;;;;8.64;80.00;100905.06;1866995;76;21043;-44
2022/11/26 02:12:54;;;;;;;19.62;8.25;;;;;;;8.65;80.01;100908.08;1874080;76;21137;-45
2022/11/26 02:15:26;;;;;;;17.82;8.48;;;;;;;8.64;79.98;100912.47;1876865;76;21544;-48
2022/11/26 02:18:04;;;;;;;22.27;9.00;;;;;;;8.64;79.98;100920.81;1893210;75;21031;-49
2022/11/26 02:20:47;;;;;;;25.30;10.72;;;;;;;8.64;79.98;100925.60;1891958;75;21131;-49
2022/11/26 02:23:31;;;;;;;23.67;9.25;;;;;;;8.62;79.97;100922.16;1875194;76;21036;-47
2022/11/26 02:26:18;;;;;;;20.88;8.68;;;;;;;8.62;79.96;100927.88;1881095;75;21059;-47
2022/11/26 02:29:01;;;;;;;21.35;8.15;;;;;;;8.61;80.03;100927.02;1887388;76;21070;-52
2022/11/26 02:31:44;;;;;;;22.17;8.75;;;;;;;8.58;80.21;100931.48;1884816;76;21144;-48
2022/11/26 02:34:18;;;;;;;24.67;8.28;;;;;;;8.58;80.21;100931.48;1876520;76;21499;-50
2022/11/26 02:36:53;;;;;;;23.70;9.03;;;;;;;8.59;80.10;100934.50;1879987;75;21083;-48
2022/11/26 02:39:24;;;;;;;23.18;8.45;;;;;;;8.57;80.09;100937.17;1874940;76;21556;-51
2022/11/26 02:41:56;;;;;;;21.73;8.70;;;;;;;8.59;80.15;100939.30;1887037;76;21016;-52
2022/11/26 02:44:28;;;;;;;22.93;7.95;;;;;;;8.61;80.15;100936.63;1876354;76;21158;-48
2022/11/26 02:46:59;;;;;;;24.27;8.23;;;;;;;8.61;80.19;100931.39;1877027;76;21015;-52
2022/11/26 02:49:31;;;;;;;20.20;7.60;;;;;;;8.62;80.24;100926.56;1876948;76;21035;-51
2022/11/26 02:52:02;;;;;;;16.37;7.00;;;;;;;8.61;80.34;100916.95;1876269;76;21035;-50
2022/11/26 02:54:32;;;;;;;19.75;9.58;;;;;;;8.62;80.36;100923.94;1876848;76;21498;-49
2022/11/26 02:57:04;;;;;;;24.55;8.55;;;;;;;8.63;80.39;100917.33;1877123;76;21031;-50
2022/11/26 02:59:33;;;;;;;23.10;8.83;;;;;;;8.65;80.33;100922.52;1877030;76;21036;-51
2022/11/26 03:02:05;;;;;;;18.65;8.40;;;;;;;8.65;80.44;100917.27;1877813;76;21050;-50
2022/11/26 03:04:39;;;;;;;17.10;6.90;;;;;;;8.62;80.64;100928.72;1881134;76;21015;-50
2022/11/26 03:07:11;;;;;;;16.60;7.35;;;;;;;8.63;80.64;100928.27;1873188;76;21090;-52
2022/11/26 03:09:49;;;;;;;24.47;9.80;;;;;;;8.66;80.58;100932.13;1870119;76;21051;-50
2022/11/26 03:12:18;;;;;;;21.35;8.73;;;;;;;8.68;80.51;100932.94;1869719;76;21043;-50
2022/11/26 03:14:47;;;;;;;23.42;8.58;;;;;;;8.70;80.47;100942.94;1869612;76;21160;-50
2022/11/26 03:17:16;;;;;;;25.15;10.68;;;;;;;8.71;80.42;100943.36;1870012;76;21011;-50
2022/11/26 03:19:46;;;;;;;20.45;8.65;;;;;;;8.71;80.39;100943.36;1869422;76;21498;-50
2022/11/26 03:22:15;;;;;;;20.27;8.23;;;;;;;8.70;80.42;100948.19;1867501;77;21512;-52
2022/11/26 03:24:44;;;;;;;26.73;9.35;;;;;;;8.69;80.45;100951.73;1868341;77;21474;-52
2022/11/26 03:27:13;;;;;;;21.80;8.95;;;;;;;8.68;80.51;100950.85;1869690;76;21019;-47
2022/11/26 03:29:41;;;;;;;25.12;9.40;;;;;;;8.67;80.58;100950.46;1867308;76;21036;-49
2022/11/26 03:32:10;;;;;;;28.27;9.15;;;;;;;8.66;80.66;100953.98;1869693;76;21109;-48
2022/11/26 03:34:39;;;;;;;26.30;9.53;;;;;;;8.67;80.68;100957.48;1869837;76;21067;-49
2022/11/26 03:37:07;;;;;;;30.95;11.83;;;;;;;8.67;80.78;100948.30;1869855;76;21094;-48
2022/11/26 03:39:36;;;;;;;25.43;10.00;;;;;;;8.66;80.87;100955.75;1869612;76;21109;-53
2022/11/26 03:42:05;;;;;;;25.48;9.45;;;;;;;8.67;80.89;100958.80;1891293;75;21057;-49
2022/11/26 03:44:33;;;;;;;26.65;10.45;;;;;;;8.68;80.92;100959.19;1901911;75;21047;-50
2022/11/26 03:47:02;;;;;;;28.73;9.95;;;;;;;8.68;80.93;100958.73;1905649;75;21110;-49
2022/11/26 03:49:31;;;;;;;24.35;9.28;;;;;;;8.68;81.01;100965.29;1905683;75;21071;-52
2022/11/26 03:52:00;;;;;;;29.90;9.33;;;;;;;8.68;81.12;100965.75;1904368;75;21043;-56
2022/11/26 03:54:29;;;;;;;30.25;10.55;;;;;;;8.69;81.32;100976.67;1905676;75;21109;-55
2022/11/26 03:56:58;;;;;;;26.05;10.05;;;;;;;8.70;81.30;100970.50;1905650;75;21160;-55
2022/11/26 03:59:27;;;;;;;28.77;9.93;;;;;;;8.73;81.23;100974.83;1905656;75;21011;-55
2022/11/26 04:01:56;;;;;;;25.00;10.60;;;;;;;8.75;81.13;100976.95;1904566;75;21015;-54
2022/11/26 04:04:24;;;;;;;23.35;9.80;;;;;;;8.75;81.07;100975.64;1895849;75;21015;-54
2022/11/26 04:06:58;;;;;;;23.07;9.35;;;;;;;8.76;81.02;100977.34;1893858;75;21129;-54
2022/11/26 04:09:23;;;;;;;26.30;9.78;;;;;;;8.76;81.04;100982.17;1887053;75;21043;-55
2022/11/26 04:11:52;;;;;;;25.62;10.13;;;;;;;8.77;81.03;100979.09;1886693;76;21038;-54
2022/11/26 04:14:21;;;;;;;27.45;9.90;;;;;;;8.78;81.02;100987.36;1876834;76;21035;-49
2022/11/26 04:16:49;;;;;;;21.52;9.80;;;;;;;8.77;81.02;100989.13;1877001;76;21035;-51
2022/11/26 04:19:18;;;;;;;25.05;10.03;;;;;;;8.79;81.03;100985.16;1877045;76;21074;-49
2022/11/26 04:21:47;;;;;;;20.62;8.58;;;;;;;8.79;81.01;100993.03;1877010;76;21059;-48
2022/11/26 04:24:15;;;;;;;24.77;8.83;;;;;;;8.78;81.06;100990.86;1894279;75;21043;-47
2022/11/26 04:26:44;;;;;;;24.27;10.48;;;;;;;8.77;81.10;100989.59;1896035;75;21003;-48
2022/11/26 04:29:13;;;;;;;33.02;12.00;;;;;;;8.78;81.15;100996.55;1885358;76;21047;-49
2022/11/26 04:31:42;;;;;;;30.55;12.45;;;;;;;8.78;81.16;100999.17;1889145;75;21047;-47
2022/11/26 04:34:10;;;;;;;35.75;13.48;;;;;;;8.77;81.20;100999.63;1896755;75;21025;-50
2022/11/26 04:36:39;;;;;;;40.78;13.62;;;;;;;8.79;81.25;101001.75;1892966;76;21072;-51
2022/11/26 04:39:08;;;;;;;36.20;13.15;;;;;;;8.79;81.32;101004.38;1890271;76;21690;-48
2022/11/26 04:41:38;;;;;;;33.10;13.50;;;;;;;8.79;81.37;101008.33;1879547;76;21109;-96
2022/11/26 04:44:06;;;;;;;31.25;11.35;;;;;;;8.77;81.43;101007.50;1881282;75;21140;-51
2022/11/26 04:46:35;;;;;;;32.75;11.45;;;;;;;8.78;81.42;101009.24;1888892;76;21541;-49
2022/11/26 04:49:04;;;;;;;33.63;10.85;;;;;;;8.78;81.42;101007.93;1877562;76;21043;-48
2022/11/26 04:51:32;;;;;;;30.62;12.13;;;;;;;8.80;81.44;101013.14;1877851;76;21035;-49
2022/11/26 04:54:01;;;;;;;32.73;12.10;;;;;;;8.80;81.46;101013.14;1876945;76;21043;-47
2022/11/26 04:56:29;;;;;;;30.20;11.78;;;;;;;8.81;81.46;101010.91;1876956;76;21047;-47
2022/11/26 04:58:58;;;;;;;30.80;10.80;;;;;;;8.82;81.51;101017.44;1876947;76;21113;-47
2022/11/26 05:01:27;;;;;;;30.90;11.10;;;;;;;8.83;81.54;101032.27;1876867;76;21019;-53
2022/11/26 05:03:55;;;;;;;27.60;10.38;;;;;;;8.84;81.56;101034.01;1883061;76;21047;-49
2022/11/26 05:06:24;;;;;;;27.67;10.00;;;;;;;8.86;81.53;101045.33;1883709;76;21039;-53
2022/11/26 05:08:52;;;;;;;26.65;9.75;;;;;;;8.84;81.57;101049.77;1883725;75;21060;-52
2022/11/26 05:11:21;;;;;;;23.70;8.93;;;;;;;8.85;81.61;101043.63;1883755;76;21016;-49
2022/11/26 05:13:50;;;;;;;23.85;8.83;;;;;;;8.86;81.71;101051.04;1879541;76;21019;-46
2022/11/26 05:16:18;;;;;;;22.35;8.00;;;;;;;8.86;81.72;101050.58;1877014;76;21133;-45
2022/11/26 05:18:47;;;;;;;23.32;8.93;;;;;;;8.88;81.73;101051.40;1876949;76;21541;-48
2022/11/26 05:21:16;;;;;;;23.52;8.83;;;;;;;8.89;81.71;101050.51;1877036;76;21047;-46
2022/11/26 05:23:44;;;;;;;21.73;7.72;;;;;;;8.90;81.74;101060.55;1879501;76;21554;-46
2022/11/26 05:26:13;;;;;;;19.37;7.80;;;;;;;8.91;81.75;101063.60;1883763;76;21043;-46
2022/11/26 05:28:42;;;;;;;23.38;8.08;;;;;;;8.91;81.78;101062.30;1883894;76;21117;-46
2022/11/26 05:31:10;;;;;;;22.85;8.23;;;;;;;8.91;81.80;101062.72;1883759;76;21043;-45
2022/11/26 05:33:39;;;;;;;20.62;7.83;;;;;;;8.91;81.81;101066.23;1878692;76;21094;-45
2022/11/26 05:36:08;;;;;;;24.90;8.98;;;;;;;8.91;81.83;101071.48;1876909;76;21112;-45
2022/11/26 05:38:37;;;;;;;20.60;9.43;;;;;;;8.93;81.81;101068.79;1876959;76;21007;-45
2022/11/26 05:41:05;;;;;;;21.37;8.10;;;;;;;8.94;81.79;101071.84;1877026;76;21100;-46
2022/11/26 05:43:35;;;;;;;19.45;7.55;;;;;;;8.93;81.83;101075.36;1877129;76;21039;-45
2022/11/26 05:46:05;;;;;;;25.15;8.35;;;;;;;8.93;81.89;101072.73;1882526;76;21545;-46
2022/11/26 05:48:34;;;;;;;24.67;8.33;;;;;;;8.92;81.92;101071.02;1880544;76;21030;-46
2022/11/26 05:51:04;;;;;;;24.02;8.40;;;;;;;8.93;81.91;101080.61;1879549;76;21031;-46
2022/11/26 05:53:32;;;;;;;21.85;8.65;;;;;;;8.95;81.92;101081.45;1881349;75;21039;-47
2022/11/26 05:56:01;;;;;;;24.15;8.53;;;;;;;8.97;81.92;101082.27;1879318;76;21062;-48
2022/11/26 05:58:29;;;;;;;22.15;7.80;;;;;;;8.98;81.86;101088.80;1880392;76;21128;-46
2022/11/26 06:00:58;;;;;;;20.20;7.70;;;;;;;9.02;81.86;101088.27;1879536;76;21140;-46
2022/11/26 06:03:27;;;;;;;23.90;8.18;;;;;;;9.02;81.84;101090.89;1880036;75;21104;-48
2022/11/26 06:05:55;;;;;;;24.98;9.68;;;;;;;9.00;81.96;101092.67;1883841;76;21109;-47
2022/11/26 06:08:24;;;;;;;21.87;7.92;;;;;;;8.99;82.07;101100.16;1891462;75;21031;-46
2022/11/26 06:10:53;;;;;;;22.27;8.13;;;;;;;9.02;82.08;101100.09;1890855;74;21149;-46
2022/11/26 06:13:21;;;;;;;23.07;8.40;;;;;;;9.06;82.06;101097.33;1883593;74;21037;-48
2022/11/26 06:15:50;;;;;;;24.25;8.65;;;;;;;9.10;81.99;101099.88;1882441;74;21052;-47
2022/11/26 06:18:19;;;;;;;23.35;8.33;;;;;;;9.12;81.94;101098.92;1875904;76;21112;-47
2022/11/26 06:20:48;;;;;;;24.98;8.08;;;;;;;9.13;81.93;101104.59;1885856;75;21118;-46
2022/11/26 06:23:17;;;;;;;22.67;8.43;;;;;;;9.13;81.93;101101.97;1878281;76;21262;-48
2022/11/26 06:25:45;;;;;;;22.75;8.40;;;;;;;9.12;81.95;101101.55;1885128;76;21551;-47
2022/11/26 06:28:14;;;;;;;25.02;8.83;;;;;;;9.16;81.97;101100.55;1883780;75;21140;-47
2022/11/26 06:30:44;;;;;;;26.05;9.63;;;;;;;9.18;81.98;101097.42;1879303;76;21120;-47
2022/11/26 06:33:13;;;;;;;29.45;9.68;;;;;;;9.23;82.06;101102.57;1879352;76;21039;-48
2022/11/26 06:35:41;;;;;;;32.50;10.68;;;;;;;9.28;82.07;101097.59;1879200;76;21117;-52
2022/11/26 06:38:10;;;;;;;46.25;14.23;;;;;;;9.31;82.07;101091.37;1881243;75;21158;-49
2022/11/26 06:40:39;;;;;;;39.27;13.43;;;;;;;9.36;82.09;101097.38;1893833;75;21003;-48
2022/11/26 06:43:08;;;;;;;39.83;12.10;;;;;;;9.40;82.10;101105.58;1893893;75;21003;-46
2022/11/26 06:45:36;;;;;;;33.02;11.65;;;;;;;9.45;82.06;101104.15;1892134;75;21035;-47
2022/11/26 06:48:05;;;;;;;34.48;11.57;;;;;;;9.48;82.06;101101.44;1873488;76;21040;-47
2022/11/26 06:50:34;;;;;;;32.20;10.10;;;;;;;9.52;82.04;101101.75;1885097;76;21112;-46
2022/11/26 06:53:02;;;;;;;30.32;10.70;;;;;;;9.59;82.04;101104.62;1887293;76;21098;-51
2022/11/26 06:55:31;;;;;;;30.55;10.05;;;;;;;9.64;82.03;101100.52;1867474;77;21071;-53
2022/11/26 06:58:00;;;;;;;27.42;9.83;;;;;;;9.69;81.98;101109.61;1867566;77;21091;-52
2022/11/26 07:00:28;;;;;;;31.07;10.28;;;;;;;9.69;82.02;101109.61;1879258;76;21124;-52
2022/11/26 07:02:57;;;;;;;30.90;10.78;;;;;;;9.69;82.00;101114.86;1889272;76;21141;-52
2022/11/26 07:05:26;;;;;;;30.30;10.58;;;;;;;9.68;82.03;101115.30;1873185;76;21044;-52
2022/11/26 07:07:54;;;;;;;30.50;10.70;;;;;;;9.66;82.09;101114.05;1871746;77;21141;-54
2022/11/26 07:10:23;;;;;;;44.15;15.28;;;;;;;9.66;82.14;101114.05;1870806;76;21008;-53
2022/11/26 07:12:52;;;;;;;39.05;14.53;;;;;;;9.68;82.17;101118.39;1872489;76;21047;-52
2022/11/26 07:15:21;;;;;;;46.65;15.60;;;;;;;9.66;82.25;101120.63;1878416;76;21493;-51
2022/11/26 07:17:49;;;;;;;45.95;15.00;;;;;;;9.66;82.30;101119.31;1891686;76;21015;-49
2022/11/26 07:20:18;;;;;;;33.40;10.25;;;;;;;9.69;82.36;101122.75;1877995;76;21027;-49
2022/11/26 07:22:47;;;;;;;44.03;15.55;;;;;;;9.74;82.34;101126.08;1893237;76;21490;-48
2022/11/26 07:25:16;;;;;;;42.85;15.25;;;;;;;9.72;82.33;101130.10;1893177;76;21156;-47
2022/11/26 07:27:44;;;;;;;52.98;16.77;;;;;;;9.74;82.37;101132.66;1885340;76;21129;-49
2022/11/26 07:30:14;;;;;;;50.12;15.63;;;;;;;9.74;82.38;101139.23;1881186;76;21011;-45
2022/11/26 07:32:42;;;;;;;45.00;15.35;;;;;;;9.76;82.34;101140.08;1870460;76;21109;-48
2022/11/26 07:35:12;;;;;;;34.40;12.95;;;;;;;9.77;82.32;101143.10;1875737;76;21124;-49
2022/11/26 07:37:41;;;;;;;34.35;12.63;;;;;;;9.79;82.34;101146.55;1886114;76;21020;-47
2022/11/26 07:40:10;;;;;;;35.30;12.15;;;;;;;9.81;82.31;101151.30;1872854;76;21094;-46
2022/11/26 07:42:39;;;;;;;35.85;10.70;;;;;;;9.83;82.30;101152.11;1887370;76;21120;-46
2022/11/26 07:45:08;;;;;;;35.80;11.20;;;;;;;9.85;82.27;101150.33;1883904;76;21040;-47
2022/11/26 07:47:37;;;;;;;31.42;9.83;;;;;;;9.86;82.27;101152.89;1881797;75;21141;-46
2022/11/26 07:50:07;;;;;;;25.23;10.10;;;;;;;9.86;82.30;101154.66;1886492;76;21117;-46
2022/11/26 07:52:36;;;;;;;31.23;10.38;;;;;;;9.85;82.32;101155.59;1888469;76;21063;-48
2022/11/26 07:55:06;;;;;;;28.38;8.93;;;;;;;9.85;82.33;101155.59;1888349;75;21183;-47
2022/11/26 07:57:34;;;;;;;29.02;8.80;;;;;;;9.87;82.34;101157.72;1905270;75;21048;-46
2022/11/26 08:00:04;;;;;;;28.73;9.35;;;;;;;9.87;82.35;101155.09;1905928;75;21039;-50
2022/11/26 08:02:34;;;;;;;28.10;9.13;;;;;;;9.86;82.42;101159.92;1905006;75;21055;-48
2022/11/26 08:05:03;;;;;;;25.02;9.75;;;;;;;9.85;82.39;101155.59;1905801;75;21069;-46
2022/11/26 08:07:31;;;;;;;26.37;7.45;;;;;;;9.86;82.36;101160.78;1886331;75;21114;-48
2022/11/26 08:10:00;;;;;;;23.95;8.43;;;;;;;9.88;82.34;101164.69;1896377;75;21094;-47
2022/11/26 08:12:29;;;;;;;28.70;8.45;;;;;;;9.86;82.38;101169.13;1889902;75;21128;-48
2022/11/26 08:14:57;;;;;;;30.20;9.10;;;;;;;9.84;82.48;101163.05;1905819;75;21038;-51
2022/11/26 08:17:26;;;;;;;22.82;8.13;;;;;;;9.82;82.52;101167.50;1905325;75;21254;-49
2022/11/26 08:19:55;;;;;;;26.42;9.28;;;;;;;9.83;82.55;101167.89;1873211;76;21043;-49
2022/11/26 08:22:23;;;;;;;23.18;8.63;;;;;;;9.82;82.62;101163.56;1857863;76;21120;-51
2022/11/26 08:24:52;;;;;;;18.80;8.43;;;;;;;9.86;82.58;101166.50;1869639;77;21081;-52
2022/11/26 08:27:21;;;;;;;20.77;8.53;;;;;;;9.88;82.62;101163.37;1864199;77;21197;-52
2022/11/26 08:29:49;;;;;;;22.45;7.83;;;;;;;9.87;82.67;101169.55;1878945;76;21039;-49
2022/11/26 08:32:18;;;;;;;22.05;8.08;;;;;;;9.89;82.63;101162.48;1879280;76;21035;-51
2022/11/26 08:34:47;;;;;;;24.55;8.73;;;;;;;9.90;82.62;101160.23;1879408;76;21112;-48
2022/11/26 08:37:16;;;;;;;27.25;10.48;;;;;;;9.92;82.63;101162.83;1879621;76;21166;-48
2022/11/26 08:39:44;;;;;;;26.45;10.08;;;;;;;9.91;82.63;101163.29;1879734;76;21153;-47
2022/11/26 08:42:13;;;;;;;24.10;8.60;;;;;;;9.90;82.72;101170.76;1879510;76;21035;-47
2022/11/26 08:44:41;;;;;;;8.95;5.17;;;;;;;9.86;82.91;101177.88;1879472;76;21117;-48
2022/11/26 08:47:10;;;;;;;14.13;6.17;;;;;;;9.84;82.97;101177.52;1877695;75;21078;-48
2022/11/26 08:49:39;;;;;;;16.30;7.50;;;;;;;9.83;83.06;101173.16;1868508;76;21529;-50
2022/11/26 08:52:07;;;;;;;16.15;7.83;;;;;;;9.82;83.19;101174.08;1869988;77;21465;-47
2022/11/26 08:54:36;;;;;;;22.17;7.67;;;;;;;9.83;83.25;101166.58;1870068;76;21129;-46
2022/11/26 08:57:05;;;;;;;15.75;6.22;;;;;;;9.88;83.21;101173.89;1875305;76;21067;-49
2022/11/26 08:59:33;;;;;;;20.97;8.45;;;;;;;9.93;83.11;101174.62;1869908;76;21208;-47
2022/11/26 09:02:02;;;;;;;24.27;8.38;;;;;;;9.95;83.03;101170.17;1877368;76;21051;-48
2022/11/26 09:04:31;;;;;;;22.30;7.80;;;;;;;9.96;82.96;101174.55;1874549;76;21090;-50
2022/11/26 09:07:00;;;;;;;22.62;7.55;;;;;;;9.99;82.91;101174.44;1872118;76;21047;-51
2022/11/26 09:09:29;;;;;;;24.52;9.78;;;;;;;10.00;82.87;101172.22;1868035;77;21051;-47
2022/11/26 09:12:00;;;;;;;29.42;9.50;;;;;;;10.00;82.87;101169.59;1869863;77;21477;-47
2022/11/26 09:14:30;;;;;;;23.83;9.10;;;;;;;10.02;82.84;101170.87;1865540;76;21043;-48
2022/11/26 09:16:59;;;;;;;22.98;8.13;;;;;;;10.03;82.78;101176.52;1836508;77;21470;-50
2022/11/26 09:19:28;;;;;;;23.95;8.90;;;;;;;10.01;82.80;101177.91;1851388;76;21035;-47
2022/11/26 09:21:57;;;;;;;25.68;10.45;;;;;;;9.98;82.83;101184.56;1874637;76;21486;-48
2022/11/26 09:24:26;;;;;;;30.37;10.43;;;;;;;9.96;82.82;101178.48;1875215;75;21039;-48
2022/11/26 09:26:55;;;;;;;23.40;8.58;;;;;;;9.94;82.80;101181.63;1909299;75;21031;-48
2022/11/26 09:29:25;;;;;;;23.83;8.75;;;;;;;9.94;82.83;101192.14;1890593;75;21091;-47
2022/11/26 09:31:54;;;;;;;24.70;8.63;;;;;;;9.93;82.85;101193.04;1866307;76;21153;-47
2022/11/26 09:34:22;;;;;;;37.45;12.80;;;;;;;9.91;82.85;101192.22;1868743;76;21033;-47
2022/11/26 09:36:51;;;;;;;28.85;11.25;;;;;;;9.89;82.88;101194.04;1871143;76;21150;-50
2022/11/26 09:39:19;;;;;;;23.73;8.85;;;;;;;9.88;82.88;101194.94;1868296;75;21009;-47
2022/11/26 09:42:03;;;;;;;31.30;8.43;;;;;;;9.87;82.89;101198.48;1868196;75;21116;-46
2022/11/26 09:44:44;;;;;;;26.15;9.55;;;;;;;9.86;82.88;101197.60;1869022;76;21042;-46
2022/11/26 09:47:27;;;;;;;24.63;10.68;;;;;;;9.88;82.84;101197.56;1867821;76;21100;-49
2022/11/26 09:50:07;;;;;;;33.38;11.25;;;;;;;9.89;82.78;101198.45;1869914;75;21049;-54
2022/11/26 09:52:54;;;;;;;30.97;10.68;;;;;;;9.86;82.75;101193.66;1866435;76;21115;-54
2022/11/26 09:55:26;;;;;;;28.85;9.23;;;;;;;9.86;82.76;101195.44;1866989;76;21099;-50
2022/11/26 09:58:03;;;;;;;35.25;11.40;;;;;;;9.83;82.78;101191.56;1866246;76;21050;-55
2022/11/26 10:00:35;;;;;;;34.90;12.07;;;;;;;9.82;82.77;101198.60;1867176;76;21101;-56
2022/11/26 10:03:06;;;;;;;23.55;9.73;;;;;;;9.83;82.74;101202.09;1869756;74;21606;-54
2022/11/26 10:05:41;;;;;;;23.45;8.70;;;;;;;9.84;82.72;101203.83;1877516;75;21041;-53
2022/11/26 10:08:27;;;;;;;27.40;8.43;;;;;;;9.82;82.69;101206.49;1863950;76;21053;-55
2022/11/26 10:10:59;;;;;;;27.35;9.25;;;;;;;9.79;82.73;101205.28;1870831;76;21127;-55
2022/11/26 10:13:40;;;;;;;29.55;10.55;;;;;;;9.76;82.78;101204.51;1870421;76;21123;-55
2022/11/26 10:16:20;;;;;;;23.05;8.43;;;;;;;9.73;82.84;101205.90;1872403;76;21021;-55
2022/11/26 10:19:04;;;;;;;24.32;9.10;;;;;;;9.74;82.88;101210.23;1870886;76;21120;-54
2022/11/26 10:21:38;;;;;;;20.95;7.20;;;;;;;9.72;82.87;101211.62;1869802;77;21039;-57
2022/11/26 10:24:15;;;;;;;24.12;8.68;;;;;;;9.72;82.88;101212.05;1869902;77;21486;-55
2022/11/26 10:26:44;;;;;;;24.90;8.90;;;;;;;9.72;82.85;101218.20;1869466;77;21113;-56
2022/11/26 10:29:25;;;;;;;19.87;8.45;;;;;;;9.71;82.87;101222.17;1870146;76;21083;-49
2022/11/26 10:32:02;;;;;;;20.88;7.97;;;;;;;9.68;82.92;101223.10;1869932;77;21087;-48
2022/11/26 10:34:49;;;;;;;54.20;20.68;;;;;;;9.63;82.96;101221.94;1869522;77;21104;-46
2022/11/26 10:37:21;;;;;;;26.85;9.48;;;;;;;9.57;83.07;101223.42;1869831;77;21504;-48
2022/11/26 10:39:51;;;;;;;27.98;10.18;;;;;;;9.54;83.17;101227.44;1870266;76;21035;-46
2022/11/26 10:42:22;;;;;;;30.60;10.08;;;;;;;9.54;83.20;101234.02;1869577;77;21159;-46
2022/11/26 10:44:52;;;;;;;25.60;8.80;;;;;;;9.55;83.18;101237.03;1872409;76;21466;-46
2022/11/26 10:47:30;;;;;;;21.23;10.72;;;;;;;9.53;83.23;101230.11;1878095;76;21170;-47
2022/11/26 10:50:07;;;;;;;26.10;9.93;;;;;;;9.52;83.23;101237.14;1885214;75;21521;-46
2022/11/26 10:52:38;;;;;;;36.75;9.88;;;;;;;9.51;83.24;101234.55;1894666;75;21079;-48
2022/11/26 10:55:19;;;;;;;34.78;11.95;;;;;;;9.50;83.26;101238.95;1894124;75;21112;-44
2022/11/26 10:58:01;;;;;;;29.77;9.43;;;;;;;9.50;83.25;101241.58;1893101;75;21752;-45
2022/11/26 11:00:35;;;;;;;23.87;9.58;;;;;;;9.51;83.29;101245.06;1879498;75;21019;-45
2022/11/26 11:03:06;;;;;;;16.90;7.37;;;;;;;9.49;83.38;101249.03;1879557;76;21587;-45
2022/11/26 11:05:35;;;;;;;27.20;9.70;;;;;;;9.48;83.43;101246.02;1895326;75;21506;-48
2022/11/26 11:08:04;;;;;;;30.60;9.40;;;;;;;9.48;83.43;101247.33;1884807;75;21140;-46
2022/11/26 11:10:33;;;;;;;26.87;9.08;;;;;;;9.49;83.40;101244.23;1879510;76;21106;-45
2022/11/26 11:13:14;;;;;;;29.40;8.15;;;;;;;9.46;83.45;101243.42;1878977;76;21599;-49
2022/11/26 11:15:43;;;;;;;22.85;9.28;;;;;;;9.46;83.45;101247.80;1879595;76;21015;-45
2022/11/26 11:18:15;;;;;;;30.02;8.05;;;;;;;9.43;83.54;101245.27;1889166;75;21545;-46
2022/11/26 11:21:00;;;;;;;25.52;10.30;;;;;;;9.41;83.62;101245.77;1894283;75;21583;-47
2022/11/26 11:23:32;;;;;;;28.65;10.18;;;;;;;9.41;83.69;101258.91;1895974;75;21016;-47
2022/11/26 11:26:09;;;;;;;33.02;9.90;;;;;;;9.40;83.75;101262.42;1895037;75;21093;-45
2022/11/26 11:28:41;;;;;;;34.83;9.70;;;;;;;9.41;83.76;101268.10;1886184;75;21039;-47
2022/11/26 11:31:14;;;;;;;34.95;9.60;;;;;;;9.41;83.78;101264.16;1879486;76;21039;-47
2022/11/26 11:33:43;;;;;;;28.30;9.53;;;;;;;9.41;83.79;101254.50;1879288;76;21533;-45
2022/11/26 11:36:21;;;;;;;28.27;8.75;;;;;;;9.43;83.79;101258.41;1879900;76;21086;-46
2022/11/26 11:38:55;;;;;;;22.67;6.65;;;;;;;9.44;83.81;101259.69;1885156;75;21047;-46